Météo Nord-Pas-de-Calais   La météo au plus près de chez vous

Station météorologique

Observations météo à Embrun (05046)

05046001 873 m Dernier relevé à 10:06
22°C
Humidité 74 % Vent 11.2 km/h

Journée consultée

Samedi 5 Septembre 2026

Synthèse de la journée

Périodes de référence en UTC

Température maximale

22°C

à 10:06

06h 06h

Température minimale

14.6°C

à 07:12

18h 18h

Rafale maximale

19 km/h

à 04:18

00h 00h

Précipitations

0 mm

Cumul quotidien

06h 06h

Ensoleillement

0h 58 mins

Durée quotidienne

00h 00h

Graphiques de la journée

Heure locale Réduire

Données détaillées

Relevés météo

Pas de 6 minutes Afficher les relevés infra-horaires
Relevés météo détaillés à Embrun pour le Samedi 5 Septembre 2026
Heure Température °C Point de rosée °C Humidité % Vent moyen (raf.), km/h Précipitations mm Température à 10 cm °C Température à 20 cm °C Température à 50 cm °C Température à 100 cm °C Hauteur neige cm Ensoleillement min Rayonnement global W/m²
10:06 22 °C 12.8 °C 56 % 10 km/h (13 km/h) 0 mm0 mm 19.9 °C 20.8 °C 20.2 °C 19.4 °C 0 cm 6 min 149.2 W/m²
10:00 21.5 °C 12.6 °C 57 % 10 km/h (14 km/h) 0 mm0 mm 19.9 °C 20.8 °C 20.2 °C 19.4 °C 0 cm 6 min 149.8 W/m²
09:54 21.3 °C 13 °C 59 % 10 km/h (15 km/h) 0 mm0 mm 19.9 °C 20.8 °C 20.2 °C 19.4 °C 0 cm 6 min 140.4 W/m²
09:48 20.9 °C 12.6 °C 59 % 10 km/h (16 km/h) 0 mm0 mm 19.9 °C 20.9 °C 20.2 °C 19.4 °C 0 cm 6 min 130.6 W/m²
09:42 20.7 °C 12.7 °C 60 % 9 km/h (17 km/h) 0 mm0 mm 19.9 °C 20.9 °C 20.2 °C 19.4 °C 0 cm 6 min 120 W/m²
09:36 20.4 °C 13.6 °C 65 % 9 km/h (15 km/h) 0 mm0 mm 20 °C 20.9 °C 20.2 °C 19.4 °C 0 cm 6 min 124.5 W/m²
09:30 19.8 °C 13.3 °C 66 % 9 km/h (15 km/h) 0 mm0 mm 20 °C 20.9 °C 20.2 °C 19.4 °C 0 cm 6 min 122.4 W/m²
09:24 18.8 °C 13 °C 69 % 8 km/h (12 km/h) 0 mm0 mm 20 °C 20.9 °C 20.2 °C 19.4 °C 0 cm 6 min 113.6 W/m²
09:18 18.2 °C 13.3 °C 73 % 8 km/h (12 km/h) 0 mm0 mm 20 °C 20.9 °C 20.2 °C 19.4 °C 0 cm 6 min 105.2 W/m²
09:12 17 °C 12.3 °C 74 % 9 km/h (14 km/h) 0 mm0 mm 20.1 °C 21 °C 20.2 °C 19.4 °C 0 cm 4 min 88.2 W/m²
09:06 16.5 °C 11.8 °C 74 % 11 km/h (15 km/h) 0 mm0 mm 20.1 °C 21 °C 20.2 °C 19.4 °C 0 cm 0 min 40 W/m²
09:00 16.2 °C 11.4 °C 73 % 10 km/h (15 km/h) 0 mm0 mm 20.1 °C 21 °C 20.2 °C 19.4 °C 0 cm 0 min 28.8 W/m²
08:54 16 °C 11.8 °C 76 % 10 km/h (17 km/h) 0 mm0 mm 20.1 °C 21 °C 20.2 °C 19.4 °C 0 cm 0 min 34.5 W/m²
08:48 15.8 °C 11.6 °C 76 % 11 km/h (17 km/h) 0 mm0 mm 20.2 °C 21 °C 20.2 °C 19.4 °C 0 cm 0 min 32.5 W/m²
08:42 15.5 °C 11.7 °C 78 % 10 km/h (16 km/h) 0 mm0 mm 20.2 °C 21 °C 20.2 °C 19.4 °C 0 cm 0 min 31.5 W/m²
08:36 15.2 °C 11.4 °C 78 % 8 km/h (13 km/h) 0 mm0 mm 20.2 °C 21.1 °C 20.2 °C 19.4 °C 0 cm 0 min 33.7 W/m²
08:30 15 °C 11.4 °C 79 % 9 km/h (13 km/h) 0 mm0 mm 20.2 °C 21.1 °C 20.2 °C 19.4 °C 0 cm 0 min 28.4 W/m²
08:24 15 °C 11.2 °C 78 % 8 km/h (16 km/h) 0 mm0 mm 20.3 °C 21.1 °C 20.2 °C 19.4 °C 0 cm 0 min 24 W/m²
08:18 15.2 °C 11.4 °C 78 % 9 km/h (16 km/h) 0 mm0 mm 20.3 °C 21.1 °C 20.2 °C 19.4 °C 0 cm 0 min 19.3 W/m²
08:12 15.3 °C 11.1 °C 76 % 9 km/h (14 km/h) 0 mm0 mm 20.3 °C 21.1 °C 20.2 °C 19.4 °C 0 cm 0 min 15.2 W/m²
08:06 15.6 °C 11.2 °C 75 % 11 km/h (17 km/h) 0 mm0 mm 20.4 °C 21.2 °C 20.2 °C 19.4 °C 0 cm 0 min 12.5 W/m²
08:00 15.9 °C 11.1 °C 73 % 13 km/h (19 km/h) 0 mm0 mm 20.4 °C 21.2 °C 20.2 °C 19.4 °C 0 cm 0 min 10.7 W/m²
07:54 15.2 °C 11.2 °C 77 % 12 km/h (19 km/h) 0 mm0 mm 20.4 °C 21.2 °C 20.2 °C 19.4 °C 0 cm 0 min 9.3 W/m²
07:48 15.1 °C 11.3 °C 78 % 10 km/h (14 km/h) 0 mm0 mm 20.4 °C 21.2 °C 20.2 °C 19.4 °C 0 cm 0 min 8.9 W/m²
07:42 14.8 °C 11.2 °C 79 % 9 km/h (14 km/h) 0 mm0 mm 20.5 °C 21.2 °C 20.2 °C 19.4 °C 0 cm 0 min 8.7 W/m²
07:36 14.8 °C 11 °C 78 % 9 km/h (14 km/h) 0 mm0 mm 20.5 °C 21.2 °C 20.2 °C 19.4 °C 0 cm 0 min 8 W/m²
07:30 15 °C 11.2 °C 78 % 9 km/h (14 km/h) 0 mm0 mm 20.5 °C 21.3 °C 20.2 °C 19.4 °C 0 cm 0 min 6.9 W/m²
07:24 14.8 °C 11.2 °C 79 % 8 km/h (14 km/h) 0 mm0 mm 20.6 °C 21.3 °C 20.2 °C 19.4 °C 0 cm 0 min 5.3 W/m²
07:18 14.6 °C 11 °C 79 % 6 km/h (11 km/h) 0 mm0 mm 20.6 °C 21.3 °C 20.2 °C 19.4 °C 0 cm 0 min 0.8 W/m²
07:12 14.6 °C 11 °C 79 % 6 km/h (11 km/h) 0 mm0 mm 20.6 °C 21.3 °C 20.2 °C 19.4 °C 0 cm 0 min 0 W/m²
07:06 14.8 °C 11 °C 78 % 9 km/h (16 km/h) 0 mm0 mm 20.6 °C 21.3 °C 20.2 °C 19.4 °C 0 cm 0 min 0 W/m²
07:00 14.7 °C 11.1 °C 79 % 11 km/h (16 km/h) 0 mm0 mm 20.7 °C 21.3 °C 20.2 °C 19.4 °C 0 cm 0 min 0 W/m²
06:54 14.7 °C 10.9 °C 78 % 10 km/h (16 km/h) 0 mm0 mm 20.7 °C 21.4 °C 20.2 °C 19.4 °C 0 cm 0 min 0 W/m²
06:48 15.2 °C 11 °C 76 % 11 km/h (17 km/h) 0 mm0 mm 20.7 °C 21.4 °C 20.2 °C 19.4 °C 0 cm 0 min 0 W/m²
06:42 15.3 °C 11.1 °C 76 % 11 km/h (15 km/h) 0 mm0 mm 20.8 °C 21.4 °C 20.2 °C 19.4 °C 0 cm 0 min 0 W/m²
06:36 15.4 °C 11.2 °C 76 % 10 km/h (15 km/h) 0 mm0 mm 20.8 °C 21.4 °C 20.2 °C 19.4 °C 0 cm 0 min 0 W/m²
06:30 15.2 °C 11 °C 76 % 9 km/h (12 km/h) 0 mm0 mm 20.8 °C 21.4 °C 20.2 °C 19.4 °C 0 cm 0 min 0 W/m²
06:24 15.5 °C 11.1 °C 75 % 8 km/h (11 km/h) 0 mm0 mm 20.8 °C 21.4 °C 20.2 °C 19.4 °C 0 cm 0 min 0 W/m²
06:18 15.5 °C 11.1 °C 75 % 9 km/h (13 km/h) 0 mm0 mm 20.9 °C 21.5 °C 20.2 °C 19.4 °C 0 cm 0 min 0 W/m²
06:12 15.6 °C 11.2 °C 75 % 8 km/h (13 km/h) 0 mm0 mm 20.9 °C 21.5 °C 20.2 °C 19.4 °C 0 cm 0 min 0 W/m²
06:06 15.5 °C 11.1 °C 75 % 7 km/h (10 km/h) 0 mm0 mm 20.9 °C 21.5 °C 20.2 °C 19.4 °C 0 cm 0 min 0 W/m²
06:00 15.4 °C 11.2 °C 76 % 6 km/h (10 km/h) 0 mm0 mm 20.9 °C 21.5 °C 20.2 °C 19.4 °C 0 cm 0 min 0 W/m²
05:54 15.3 °C 11.1 °C 76 % 5 km/h (10 km/h) 0 mm0 mm 21 °C 21.5 °C 20.2 °C 19.4 °C 0 cm 0 min 0 W/m²
05:48 15.7 °C 11.1 °C 74 % 6 km/h (10 km/h) 0 mm0 mm 21 °C 21.5 °C 20.2 °C 19.4 °C 0 cm 0 min 0 W/m²
05:42 16 °C 11.2 °C 73 % 8 km/h (12 km/h) 0 mm0 mm 21 °C 21.5 °C 20.2 °C 19.4 °C 0 cm 0 min 0 W/m²
05:36 16.1 °C 11 °C 72 % 9 km/h (14 km/h) 0 mm0 mm 21.1 °C 21.6 °C 20.2 °C 19.4 °C 0 cm 0 min 0 W/m²
05:30 16.3 °C 11 °C 71 % 10 km/h (14 km/h) 0 mm0 mm 21.1 °C 21.6 °C 20.2 °C 19.4 °C 0 cm 0 min 0 W/m²
05:24 16.9 °C 11.2 °C 69 % 12 km/h (17 km/h) 0 mm0 mm 21.1 °C 21.6 °C 20.2 °C 19.4 °C 0 cm 0 min 0 W/m²
05:18 16.7 °C 11.2 °C 70 % 11 km/h (17 km/h) 0 mm0 mm 21.2 °C 21.6 °C 20.2 °C 19.4 °C 0 cm 0 min 0 W/m²
05:12 16.1 °C 11.3 °C 73 % 8 km/h (12 km/h) 0 mm0 mm 21.2 °C 21.6 °C 20.2 °C 19.4 °C 0 cm 0 min 0 W/m²
05:06 16.1 °C 11.3 °C 73 % 8 km/h (11 km/h) 0 mm0 mm 21.2 °C 21.6 °C 20.2 °C 19.4 °C 0 cm 0 min 0 W/m²
05:00 16.4 °C 11.3 °C 72 % 8 km/h (12 km/h) 0 mm0 mm 21.2 °C 21.6 °C 20.2 °C 19.4 °C 0 cm 0 min 0 W/m²
04:54 16.5 °C 11.2 °C 71 % 8 km/h (12 km/h) 0 mm0 mm 21.3 °C 21.7 °C 20.2 °C 19.4 °C 0 cm 0 min 0 W/m²
04:48 16.4 °C 11.3 °C 72 % 9 km/h (12 km/h) 0 mm0 mm 21.3 °C 21.7 °C 20.1 °C 19.4 °C 0 cm 0 min 0 W/m²
04:42 16.6 °C 11.3 °C 71 % 9 km/h (12 km/h) 0 mm0 mm 21.3 °C 21.7 °C 20.1 °C 19.4 °C 0 cm 0 min 0 W/m²
04:36 16.4 °C 11.3 °C 72 % 9 km/h (14 km/h) 0 mm0 mm 21.4 °C 21.7 °C 20.1 °C 19.4 °C 0 cm 0 min 0 W/m²
04:30 16.4 °C 11.3 °C 72 % 10 km/h (15 km/h) 0 mm0 mm 21.4 °C 21.7 °C 20.1 °C 19.4 °C 0 cm 0 min 0 W/m²
04:24 17 °C 11.5 °C 70 % 13 km/h (19 km/h) 0 mm0 mm 21.4 °C 21.7 °C 20.1 °C 19.4 °C 0 cm 0 min 0 W/m²
04:18 17.1 °C 11.4 °C 69 % 13 km/h (19 km/h) 0 mm0 mm 21.5 °C 21.7 °C 20.1 °C 19.4 °C 0 cm 0 min 0 W/m²
04:12 16.2 °C 11.6 °C 74 % 12 km/h (17 km/h) 0 mm0 mm 21.5 °C 21.8 °C 20.1 °C 19.4 °C 0 cm 0 min 0 W/m²
04:06 16.3 °C 11.4 °C 73 % 11 km/h (17 km/h) 0 mm0 mm 21.5 °C 21.8 °C 20.1 °C 19.4 °C 0 cm 0 min 0 W/m²
04:00 16.7 °C 11.4 °C 71 % 11 km/h (17 km/h) 0 mm0 mm 21.6 °C 21.8 °C 20.1 °C 19.4 °C 0 cm 0 min 0 W/m²
03:54 17.3 °C 11.6 °C 69 % 13 km/h (17 km/h) 0 mm0 mm 21.6 °C 21.8 °C 20.1 °C 19.4 °C 0 cm 0 min 0 W/m²
03:48 17.1 °C 11.6 °C 70 % 13 km/h (18 km/h) 0 mm0 mm 21.6 °C 21.8 °C 20.1 °C 19.4 °C 0 cm 0 min 0 W/m²
03:42 16.9 °C 11.6 °C 71 % 11 km/h (18 km/h) 0 mm0 mm 21.6 °C 21.8 °C 20.1 °C 19.4 °C 0 cm 0 min 0 W/m²
03:36 17.1 °C 11.8 °C 71 % 9 km/h (14 km/h) 0 mm0 mm 21.7 °C 21.9 °C 20.1 °C 19.4 °C 0 cm 0 min 0 W/m²
03:30 17 °C 11.7 °C 71 % 8 km/h (11 km/h) 0 mm0 mm 21.7 °C 21.9 °C 20.1 °C 19.4 °C 0 cm 0 min 0 W/m²
03:24 17 °C 11.7 °C 71 % 8 km/h (13 km/h) 0 mm0 mm 21.7 °C 21.9 °C 20.1 °C 19.4 °C 0 cm 0 min 0 W/m²
03:18 17 °C 11.9 °C 72 % 10 km/h (15 km/h) 0 mm0 mm 21.8 °C 21.9 °C 20.1 °C 19.4 °C 0 cm 0 min 0 W/m²
03:12 17.2 °C 11.9 °C 71 % 12 km/h (15 km/h) 0 mm0 mm 21.8 °C 21.9 °C 20.1 °C 19.4 °C 0 cm 0 min 0 W/m²
03:06 17.3 °C 11.8 °C 70 % 12 km/h (17 km/h) 0 mm0 mm 21.8 °C 21.9 °C 20.1 °C 19.4 °C 0 cm 0 min 0 W/m²
03:00 17.3 °C 11.8 °C 70 % 12 km/h (17 km/h) 0 mm0 mm 21.9 °C 21.9 °C 20.1 °C 19.4 °C 0 cm 0 min 0 W/m²
02:54 17.2 °C 11.9 °C 71 % 11 km/h (16 km/h) 0 mm0 mm 21.9 °C 21.9 °C 20.1 °C 19.4 °C 0 cm 0 min 0 W/m²
02:48 17.2 °C 11.9 °C 71 % 12 km/h (18 km/h) 0 mm0 mm 21.9 °C 21.9 °C 20.1 °C 19.4 °C 0 cm 0 min 0 W/m²
02:42 17.2 °C 11.9 °C 71 % 12 km/h (18 km/h) 0 mm0 mm 22 °C 22 °C 20 °C 19.4 °C 0 cm 0 min 0 W/m²
02:36 17.4 °C 11.9 °C 70 % 10 km/h (14 km/h) 0 mm0 mm 22 °C 22 °C 20 °C 19.4 °C 0 cm 0 min 0 W/m²
02:30 17.2 °C 11.9 °C 71 % 9 km/h (13 km/h) 0 mm0 mm 22 °C 22 °C 20 °C 19.4 °C 0 cm 0 min 0 W/m²
02:24 17.6 °C 12.1 °C 70 % 10 km/h (14 km/h) 0 mm0 mm 22.1 °C 22 °C 20 °C 19.4 °C 0 cm 0 min 0 W/m²
02:18 18 °C 12 °C 68 % 10 km/h (14 km/h) 0 mm0 mm 22.1 °C 22 °C 20 °C 19.4 °C 0 cm 0 min 0 W/m²
02:12 17.9 °C 12.1 °C 69 % 10 km/h (14 km/h) 0 mm0 mm 22.1 °C 22 °C 20 °C 19.4 °C 0 cm 0 min 0 W/m²
02:06 18.1 °C 12.1 °C 68 % 8 km/h (13 km/h) 0 mm0 mm 22.2 °C 22 °C 20 °C 19.4 °C 0 cm 0 min 0 W/m²
02:00 17.7 °C 11.9 °C 69 % 5 km/h (9 km/h) 0 mm0 mm 22.2 °C 22 °C 20 °C 19.4 °C 0 cm 0 min 0 W/m²
01:54 18.1 °C 12.1 °C 68 % 5 km/h (8 km/h) 0 mm0 mm 22.2 °C 22 °C 20 °C 19.4 °C 0 cm 0 min 0 W/m²
01:48 18.4 °C 12.2 °C 67 % 7 km/h (11 km/h) 0 mm0 mm 22.3 °C 22 °C 20 °C 19.4 °C 0 cm 0 min 0 W/m²
01:42 18.3 °C 12.1 °C 67 % 6 km/h (11 km/h) 0 mm0 mm 22.3 °C 22.1 °C 20 °C 19.4 °C 0 cm 0 min 0 W/m²
01:36 18.2 °C 12 °C 67 % 6 km/h (8 km/h) 0 mm0 mm 22.3 °C 22.1 °C 20 °C 19.4 °C 0 cm 0 min 0 W/m²
01:30 18.3 °C 12.1 °C 67 % 5 km/h (8 km/h) 0 mm0 mm 22.3 °C 22.1 °C 20 °C 19.4 °C 0 cm 0 min 0 W/m²
01:24 18.3 °C 12.1 °C 67 % 3 km/h (6 km/h) 0 mm0 mm 22.4 °C 22.1 °C 20 °C 19.4 °C 0 cm 0 min 0 W/m²
01:18 18.5 °C 12 °C 66 % 3 km/h (5 km/h) 0 mm0 mm 22.4 °C 22.1 °C 20 °C 19.4 °C 0 cm 0 min 0 W/m²
01:12 18.7 °C 12.2 °C 66 % 4 km/h (6 km/h) 0 mm0 mm 22.4 °C 22.1 °C 20 °C 19.4 °C 0 cm 0 min 0 W/m²
01:06 18.6 °C 12.1 °C 66 % 4 km/h (6 km/h) 0 mm0 mm 22.5 °C 22.1 °C 20 °C 19.4 °C 0 cm 0 min 0 W/m²
01:00 18.8 °C 12.3 °C 66 % 3 km/h (6 km/h) 0 mm0 mm 22.5 °C 22.1 °C 20 °C 19.4 °C 0 cm 0 min 0 W/m²
00:54 19.1 °C 12.1 °C 64 % 2 km/h (5 km/h) 0 mm0 mm 22.5 °C 22.1 °C 20 °C 19.4 °C 0 cm 0 min 0 W/m²
00:48 19.1 °C 11.9 °C 63 % 2 km/h (5 km/h) 0 mm0 mm 22.6 °C 22.1 °C 20 °C 19.4 °C 0 cm 0 min 0 W/m²
00:42 19.3 °C 12.3 °C 64 % 2 km/h (6 km/h) 0 mm0 mm 22.6 °C 22.1 °C 20 °C 19.4 °C 0 cm 0 min 0 W/m²
00:36 19.4 °C 12.2 °C 63 % 3 km/h (6 km/h) 0 mm0 mm 22.6 °C 22.1 °C 20 °C 19.4 °C 0 cm 0 min 0 W/m²
00:30 19.6 °C 12.1 °C 62 % 2 km/h (5 km/h) 0 mm0 mm 22.7 °C 22.1 °C 20 °C 19.4 °C 0 cm 0 min 0 W/m²
00:24 19.9 °C 12.2 °C 61 % 0 km/h (5 km/h) 0 mm0 mm 22.7 °C 22.2 °C 20 °C 19.4 °C 0 cm 0 min 0 W/m²
00:18 19.8 °C 12.3 °C 62 % 0 km/h (2 km/h) 0 mm0 mm 22.7 °C 22.2 °C 20 °C 19.4 °C 0 cm 0 min 0 W/m²
00:12 19.8 °C 12.3 °C 62 % 0 km/h (3 km/h) 0 mm0 mm 22.8 °C 22.2 °C 20 °C 19.4 °C 0 cm 0 min 0 W/m²
00:06 20 °C 12.2 °C 61 % 0 km/h (3 km/h) 0 mm0 mm 22.8 °C 22.2 °C 19.9 °C 19.4 °C 0 cm 0 min 0 W/m²
00:00 20.1 °C 12.3 °C 61 % 0 km/h (4 km/h) 0 mm0 mm 22.8 °C 22.2 °C 19.9 °C 19.4 °C 0 cm 0 min 0 W/m²

Données via Météo-France

Relevés météo à Embrun

Cette page rassemble les observations de la station de Embrun : température, humidité, vent, précipitations et pression atmosphérique. Les graphiques facilitent le suivi de la journée, tandis que le tableau donne accès aux mesures horaires et infra-horaires disponibles.

Pour replacer ces mesures dans leur contexte, consultez la climatologie de Embrun ainsi que ses normales et records. Retrouvez aussi la carte des observations météo en temps réel.